ADDS METAR Data INFO
IDs: Format: Raw Decoded Include TAF

Data at: 1208 UTC 21 Jun 2018

KBEH 211153Z AUTO 09007KT 2 1/2SM BR SCT110 18/17 A2982 RMK AO2 SLP096 60001 7//// T01830167 10183 20172 56002
KBEH 211053Z AUTO 09006KT 2SM BR BKN120 18/17 A2982 RMK AO2 RAB20E32 SLP095 P0001 T01830167 $
KBEH 211008Z AUTO 08005KT 2SM BR SCT100 18/17 A2981 RMK AO2 T01780167 $
KBEH 210953Z AUTO 07005KT 3SM BR FEW100 18/17 A2981 RMK AO2 SLP092 T01780167 $
KBEH 210853Z AUTO 00000KT 3SM BR CLR 18/17 A2983 RMK AO2 SLP097 T01780167 55008 $
KBEH 210753Z AUTO 10003KT 4SM BR CLR 18/17 A2982 RMK AO2 SLP097 T01780167 $
KBEH 210653Z AUTO 09004KT 5SM BR CLR 18/17 A2982 RMK AO2 SLP096 T01780167 $
KBEH 210553Z AUTO 00000KT 3SM BR CLR 17/17 A2985 RMK AO2 SLP106 T01720167 10206 20167 56008 $
KBEH 210453Z AUTO 00000KT 3SM BR CLR 17/16 A2985 RMK AO2 SLP107 T01720161 402280167 $
KBEH 210353Z AUTO 00000KT 4SM BR CLR 18/17 A2987 RMK AO2 SLP111 T01780167 $
KBEH 210253Z AUTO 00000KT 7SM CLR 18/17 A2988 RMK AO2 SLP115 T01830167 53003 $
KBEH 210153Z AUTO 00000KT 7SM FEW090 19/17 A2987 RMK AO2 SLP111 T01890172 $
KBEH 210125Z AUTO 00000KT 10SM SCT018 BKN090 19/17 A2988 RMK AO2 T01940172 $
KBEH 210053Z AUTO 08003KT 10SM OVC018 21/17 A2987 RMK AO2 SLP112 T02060172 $
KBEH 210050Z AUTO 08004KT 10SM OVC016 21/17 A2987 RMK AO2 $
KBEH 202353Z AUTO 06005KT 9SM OVC013 21/17 A2984 RMK AO2 SLP102 6//// T02060172 10228 20194 55002 $
KBEH 202253Z AUTO 06007KT 8SM OVC013 21/18 A2983 RMK AO2 SLP097 T02110178 $
KBEH 202240Z AUTO 08006KT 8SM OVC015 22/18 A2983 RMK AO2 T02170183 $
KBEH 202210Z AUTO 09004KT 7SM OVC014 22/18 A2984 RMK AO2 T02170183 $
KBEH 202153Z AUTO 07004KT 7SM OVC015 22/18 A2985 RMK AO2 SLP104 T02170183 $
KBEH 202133Z AUTO 06004KT 7SM OVC015 22/18 A2985 RMK AO2 T02170183 $
KBEH 202053Z AUTO 00000KT 6SM HZ BKN014 OVC018 22/18 A2985 RMK AO2 SLP105 6//// T02220183 58010 $
KBEH 202010Z AUTO VRB04KT 5SM HZ OVC011 22/18 A2986 RMK AO2 CIG 007V014 T02170183 $
KBEH 201953Z AUTO 04005KT 5SM HZ OVC007 21/18 A2986 RMK AO2 SLP109 T02110183 $
KBEH 201853Z AUTO 08006KT 3SM BR OVC005 21/18 A2987 RMK AO2 SLP112 T02060183 $
KBEH 201837Z AUTO VRB04KT 3SM BR OVC004 21/18 A2988 RMK AO2 T02060183 $
KBEH 201825Z AUTO 06003KT 2SM BR OVC004 21/19 A2988 RMK AO2 T02060189 $
KBEH 201752Z AUTO 05004KT 1 3/4SM BR OVC004 20/18 A2988 RMK AO2 SLP115 6//// T02000183 10217 20189 51007 PNO $
KBEH 201751Z AUTO 06004KT 1 3/4SM BR OVC004 20/18 A2988 RMK AO2 PNO $
KBEH 201743Z AUTO 05004KT 2SM BR OVC005 20/18 A2988 RMK AO2 T02000183 PNO $
KBEH 201653Z AUTO 10003KT OVC006 21/19 A2988 RMK AO2 SLP115 T02060189 PWINO PNO $
KBEH 201553Z AUTO 10004KT 5SM BR OVC005 21/19 A2988 RMK AO2 SLP114 T02060189 PNO $
KBEH 201453Z AUTO 08006KT 5SM BR OVC005 20/18 A2986 RMK AO2 SLP108 T02000183 58001
KBEH 201433Z AUTO 00000KT 5SM BR OVC005 20/18 A2987 RMK AO2 T02000183
KBEH 201353Z AUTO 07004KT 4SM BR OVC004 19/18 A2987 RMK AO2 SLP111 T01940183
KBEH 201323Z AUTO VRB04KT 3SM BR OVC003 19/18 A2987 RMK AO2 T01940183
KBEH 201307Z AUTO 10005KT 2SM BR OVC004 19/18 A2986 RMK AO2 T01940183
KBEH 201253Z AUTO 08006KT 1 3/4SM BR OVC004 19/18 A2986 RMK AO2 SLP108 T01890183
KBEH 201251Z AUTO 08005KT 1 1/2SM BR OVC004 19/18 A2986 RMK AO2
KBEH 201234Z AUTO 07004KT 1 1/4SM BR OVC004 19/18 A2987 RMK AO2 T01890178
KBEH 201224Z AUTO 07003KT 1 1/2SM BR OVC004 19/18 A2986 RMK AO2 T01890178
KBEH 201201Z AUTO 10004KT 2 1/2SM BR OVC005 19/18 A2986 RMK AO2 T01890178
KBEH 201153Z AUTO 08005KT 3SM BR OVC005 19/18 A2986 RMK AO2 SLP108 60009 70056 T01890178 10217 20189 53002
KBEH 201053Z AUTO 08004KT 4SM BR OVC008 19/18 A2985 RMK AO2 SLP106 T01890178
KBEH 200953Z AUTO 07005KT 8SM OVC007 19/18 A2986 RMK AO2 SLP106 T01890178
KBEH 200853Z AUTO 06005KT 7SM BKN007 OVC015 20/19 A2986 RMK AO2 RAB0754E38 CIG 004V009 SLP106 P0004 60009 T02000189 55009
KBEH 200843Z AUTO 07003KT 7SM BKN007 OVC017 20/19 A2985 RMK AO2 RAB0754E38 CIG 004V009 P0004 T02000189
KBEH 200823Z AUTO 07004KT 4SM RA BR FEW009 BKN019 OVC110 20/19 A2985 RMK AO2 RAB0754 P0003 T02000189
KBEH 200758Z AUTO 08004KT 7SM -RA SCT012 BKN030 BKN060 20/19 A2985 RMK AO2 RAB54 P0000 T02000189
KBEH 200753Z AUTO 09004KT 7SM BKN012 BKN024 BKN110 20/19 A2985 RMK AO2 RAE37 SLP105 P0002 T02000194
KBEH 200739Z AUTO 05003KT 8SM BKN012 BKN022 OVC029 21/19 A2986 RMK AO2 RAE37 P0002 T02060194
KBEH 200715Z AUTO 11005KT 6SM VCTS -RA BR OVC011 21/19 A2986 RMK AO2 LTG DSNT S P0001 T02060194
KBEH 200653Z AUTO 08006KT 8SM -RA OVC011 21/19 A2986 RMK AO2 LTG DSNT S RAB05 SLP107 P0003 T02060189
KBEH 200553Z AUTO 00000KT 10SM OVC010 22/19 A2988 RMK AO2 LTG DSNT SW RAB31E51 SLP115 P0000 60000 T02170194 10228 20217 53003
KBEH 200453Z AUTO 07003KT 10SM OVC011 22/19 A2988 RMK AO2 SLP115 T02220189 402670200
KBEH 200353Z AUTO 09005KT 10SM BKN012 OVC032 22/19 A2987 RMK AO2 SLP111 T02220189
KBEH 200321Z AUTO 10006KT 10SM SCT013 OVC044 22/18 A2987 RMK AO2 T02220183
KBEH 200253Z AUTO 11007KT 10SM BKN013 BKN040 OVC075 22/18 A2987 RMK AO2 SLP112 T02220183 58001
KBEH 200239Z AUTO 12008KT 10SM BKN013 OVC041 22/18 A2987 RMK AO2 T02220183
KBEH 200214Z AUTO 11009KT 10SM SCT028 BKN040 BKN095 22/19 A2988 RMK AO2 T02220189
KBEH 200153Z AUTO 10006KT 10SM BKN029 OVC041 22/19 A2988 RMK AO2 SLP114 T02220189
KBEH 200148Z AUTO 10007KT 10SM BKN029 OVC041 22/19 A2988 RMK AO2
KBEH 200053Z AUTO 08006KT 10SM CLR 23/19 A2988 RMK AO2 SLP114 T02280189
KBEH 200040Z AUTO 08006KT 10SM SCT030 SCT050 23/18 A2989 RMK AO2 T02280183